Manchaca, Texas
Current Conditions -  °F | °C
As of 8:33 AM on Friday 28 Nov 2014 (Local Time) from KAUS Reporting Station
Broken Clouds Broken Clouds  
Wind Chill: 48°   Ceiling: 2000
Heat Index: 48°   Visibility: 10mi
Dew Point: 43°   Wind: 0mph
Humidity: 83%   Direction: NA
Pressure: 30.32"   Gusts: NA
Location:  30.14°N, 97.83°W
Report Text: KAUS 281433Z 00000KT 10SM BKN020 BKN035 09/06 A3032 RMK AO2 T00890061
Loading
Personal Weather Stations






























Interactive Weather Map New forecast layout! Learn more

10-Day Weather Forecast

Advertisements
Track Severe Weather on mobile